createdAt,value
2022-11-18T00:01:07.933Z,1.90
2022-11-18T00:03:10.932Z,0.77
2022-11-18T00:05:14.098Z,0.90
2022-11-18T00:07:17.232Z,1.00
2022-11-18T00:09:20.552Z,0.87
2022-11-18T00:11:42.420Z,1.33
2022-11-18T00:14:02.994Z,1.27
2022-11-18T00:16:09.160Z,1.37
2022-11-18T00:18:12.111Z,1.50
2022-11-18T00:20:15.764Z,1.43
2022-11-18T00:22:18.850Z,1.20
2022-11-18T00:24:22.533Z,0.97
2022-11-18T00:26:25.595Z,1.50
2022-11-18T00:28:28.610Z,1.03
2022-11-18T00:30:31.595Z,1.10
2022-11-18T00:32:35.982Z,0.77
2022-11-18T00:34:39.136Z,1.10
2022-11-18T00:36:42.937Z,0.80
2022-11-18T00:38:46.280Z,1.10
2022-11-18T00:40:49.224Z,1.10
2022-11-18T00:42:51.224Z,0.90
2022-11-18T00:44:54.346Z,1.23
2022-11-18T00:46:57.315Z,1.23
2022-11-18T00:49:01.839Z,1.00
2022-11-18T00:51:11.720Z,1.20
2022-11-18T00:53:14.727Z,1.07
2022-11-18T00:55:17.775Z,1.10
2022-11-18T00:57:20.801Z,0.97
2022-11-18T00:59:23.833Z,1.20
2022-11-18T01:01:27.295Z,1.00
2022-11-18T01:03:30.663Z,1.30
2022-11-18T01:05:36.377Z,1.03
2022-11-18T01:07:39.517Z,1.70
2022-11-18T01:09:42.551Z,1.20
2022-11-18T01:12:03.019Z,0.90
2022-11-18T01:14:06.031Z,0.97
2022-11-18T01:16:09.020Z,0.90
2022-11-18T01:18:12.231Z,0.80
2022-11-18T01:20:15.917Z,1.20
2022-11-18T01:22:20.293Z,1.10
2022-11-18T01:24:23.690Z,1.23
2022-11-18T01:26:26.749Z,1.00
2022-11-18T01:28:29.837Z,1.03
2022-11-18T01:30:35.075Z,0.80
2022-11-18T01:32:38.101Z,0.83
2022-11-18T01:34:41.073Z,0.97
2022-11-18T01:36:44.134Z,0.87
2022-11-18T01:38:48.727Z,0.70
2022-11-18T01:40:51.827Z,0.80
2022-11-18T01:42:54.844Z,1.00
2022-11-18T01:45:09.736Z,1.30
2022-11-18T01:47:13.341Z,1.20
2022-11-18T01:49:16.875Z,0.97
2022-11-18T01:51:23.432Z,1.10
2022-11-18T01:53:28.496Z,1.00
2022-11-18T01:55:35.235Z,1.48
2022-11-18T01:57:38.201Z,1.30
2022-11-18T01:59:42.665Z,1.23
2022-11-18T02:01:45.836Z,1.03
2022-11-18T02:03:49.854Z,1.20
2022-11-18T02:05:53.717Z,1.43
2022-11-18T02:07:57.746Z,1.00
2022-11-18T02:10:03.807Z,1.27
2022-11-18T02:12:09.417Z,1.43
2022-11-18T02:14:12.575Z,1.40
2022-11-18T02:16:17.115Z,1.20
2022-11-18T02:18:28.528Z,1.40
2022-11-18T02:20:33.362Z,1.30
2022-11-18T02:22:48.593Z,1.30
2022-11-18T02:24:57.491Z,1.80
2022-11-18T02:27:36.142Z,1.23
2022-11-18T02:29:44.148Z,1.47
2022-11-18T02:31:52.650Z,0.90
2022-11-18T02:33:57.786Z,1.10
2022-11-18T02:36:06.737Z,0.90
2022-11-18T02:38:11.602Z,0.80
2022-11-18T02:40:17.559Z,0.77
2022-11-18T02:42:20.964Z,0.80
2022-11-18T02:44:26.294Z,1.13
2022-11-18T02:46:34.081Z,0.77
2022-11-18T02:48:41.389Z,0.80
2022-11-18T02:50:45.954Z,0.77
2022-11-18T02:52:52.908Z,0.73
2022-11-18T02:54:56.738Z,0.80
2022-11-18T02:57:00.258Z,0.70
2022-11-18T02:59:04.087Z,0.60
2022-11-18T03:01:07.301Z,0.60
2022-11-18T03:03:28.160Z,0.63
2022-11-18T03:05:37.541Z,0.53
2022-11-18T03:07:42.570Z,0.60
2022-11-18T03:09:48.338Z,0.70
2022-11-18T03:11:56.925Z,0.70
2022-11-18T03:14:09.483Z,0.83
2022-11-18T03:16:15.781Z,0.70
2022-11-18T03:18:26.509Z,0.53
2022-11-18T03:20:32.093Z,0.70
2022-11-18T03:22:40.257Z,0.50
2022-11-18T03:24:46.938Z,0.73
2022-11-18T03:26:52.457Z,0.80
2022-11-18T03:28:58.054Z,0.70
2022-11-18T03:31:04.442Z,0.93
2022-11-18T03:33:11.662Z,1.00
2022-11-18T03:35:19.272Z,0.90
2022-11-18T03:37:23.207Z,0.97
2022-11-18T03:39:27.245Z,0.80
2022-11-18T03:41:34.151Z,0.90
2022-11-18T03:43:39.617Z,0.70
2022-11-18T03:45:45.587Z,1.00
2022-11-18T03:47:51.514Z,0.90
2022-11-18T03:49:57.714Z,1.20
2022-11-18T03:52:07.703Z,0.90
2022-11-18T03:54:13.515Z,0.87
2022-11-18T03:56:18.058Z,1.20
2022-11-18T03:58:24.642Z,1.00
2022-11-18T04:00:28.630Z,1.20
2022-11-18T04:02:31.969Z,1.40
2022-11-18T04:04:35.115Z,1.33
2022-11-18T04:06:39.910Z,1.27
2022-11-18T04:08:45.003Z,1.80
2022-11-18T04:10:52.071Z,1.47
2022-11-18T04:13:05.915Z,1.10
2022-11-18T04:15:10.454Z,0.70
2022-11-18T04:17:14.726Z,0.93
2022-11-18T04:19:17.799Z,1.00
2022-11-18T04:21:20.765Z,0.97
2022-11-18T04:23:23.904Z,0.97
2022-11-18T04:25:28.381Z,1.00
2022-11-18T04:27:31.420Z,0.60
2022-11-18T04:29:35.221Z,0.60
2022-11-18T04:31:38.258Z,0.97
2022-11-18T04:33:41.198Z,1.00
2022-11-18T04:35:44.510Z,0.50
2022-11-18T04:37:47.450Z,0.43
2022-11-18T04:39:50.863Z,0.50
2022-11-18T04:41:56.956Z,0.60
2022-11-18T04:43:59.992Z,0.77
2022-11-18T04:46:03.115Z,0.73
2022-11-18T04:48:06.845Z,0.83
2022-11-18T04:50:10.582Z,0.60
2022-11-18T04:52:13.609Z,0.53
2022-11-18T04:54:17.335Z,0.47
2022-11-18T04:56:20.406Z,0.60
2022-11-18T04:58:24.950Z,0.70
2022-11-18T05:00:28.007Z,0.67
2022-11-18T05:02:30.971Z,0.60
2022-11-18T05:04:35.398Z,0.50
2022-11-18T05:06:38.408Z,0.90
2022-11-18T05:08:41.350Z,0.70
2022-11-18T05:10:44.439Z,0.50
2022-11-18T05:12:49.707Z,0.57
2022-11-18T05:14:54.128Z,0.50
2022-11-18T05:16:58.683Z,0.40
2022-11-18T05:19:03.233Z,0.60
2022-11-18T05:21:06.534Z,0.50
2022-11-18T05:23:09.719Z,0.67
2022-11-18T05:25:12.729Z,0.50
2022-11-18T05:27:16.324Z,0.60
2022-11-18T05:29:20.245Z,0.43
2022-11-18T05:31:24.788Z,0.57
2022-11-18T05:33:27.908Z,0.40
2022-11-18T05:35:31.337Z,0.60
2022-11-18T05:37:34.718Z,0.70
2022-11-18T05:39:37.831Z,0.43
2022-11-18T05:41:58.345Z,0.50
2022-11-18T05:44:01.799Z,0.60
2022-11-18T05:46:05.279Z,0.50
2022-11-18T05:48:09.728Z,0.73
2022-11-18T05:50:16.046Z,0.80
2022-11-18T05:52:20.528Z,0.70
2022-11-18T05:54:24.058Z,0.87
2022-11-18T05:56:30.051Z,0.90
2022-11-18T05:58:33.126Z,1.00
2022-11-18T06:00:36.293Z,1.40
2022-11-18T06:02:39.339Z,1.30
2022-11-18T06:04:46.461Z,1.00
2022-11-18T06:06:50.651Z,1.53
2022-11-18T06:08:56.910Z,0.90
2022-11-18T06:11:00.346Z,0.70
2022-11-18T06:13:06.643Z,0.70
2022-11-18T06:15:14.745Z,1.07
2022-11-18T06:17:19.581Z,0.90
2022-11-18T06:19:22.944Z,1.93
2022-11-18T06:21:27.450Z,2.20
2022-11-18T06:23:32.551Z,1.70
2022-11-18T06:25:38.681Z,0.80
2022-11-18T06:27:42.239Z,0.60
2022-11-18T06:29:45.334Z,1.00
2022-11-18T06:31:48.377Z,2.47
2022-11-18T06:33:51.419Z,2.83
2022-11-18T06:35:54.467Z,2.13
2022-11-18T06:37:58.899Z,10.83
2022-11-18T06:40:02.002Z,2.03
2022-11-18T06:42:05.245Z,1.00
2022-11-18T06:44:07.335Z,1.80
2022-11-18T06:46:29.902Z,0.90
2022-11-18T06:48:32.937Z,1.10
2022-11-18T06:50:35.919Z,4.20
2022-11-18T06:52:39.635Z,7.80
2022-11-18T06:54:44.228Z,5.53
2022-11-18T06:56:47.306Z,2.50
2022-11-18T06:58:54.340Z,1.10
2022-11-18T07:00:57.419Z,1.37
2022-11-18T07:03:00.489Z,1.87
2022-11-18T07:05:03.656Z,1.90
2022-11-18T07:07:06.884Z,3.33
2022-11-18T07:09:10.045Z,2.70
2022-11-18T07:11:16.681Z,1.80
2022-11-18T07:13:19.761Z,2.60
2022-11-18T07:15:22.815Z,2.03
2022-11-18T07:17:26.506Z,1.40
2022-11-18T07:19:34.448Z,0.93
2022-11-18T07:21:39.541Z,1.33
2022-11-18T07:23:43.072Z,1.20
2022-11-18T07:25:46.885Z,1.10
2022-11-18T07:27:51.278Z,1.50
2022-11-18T07:29:54.324Z,1.50
2022-11-18T07:31:57.407Z,1.53
2022-11-18T07:34:00.636Z,1.73
2022-11-18T07:36:05.344Z,1.30
2022-11-18T07:38:08.372Z,0.90
2022-11-18T07:40:11.854Z,1.30
2022-11-18T07:42:16.589Z,1.20
2022-11-18T07:44:21.526Z,1.10
2022-11-18T07:46:26.341Z,1.00
2022-11-18T07:48:30.025Z,1.13
2022-11-18T07:50:33.306Z,1.13
2022-11-18T07:52:36.559Z,0.87
2022-11-18T07:54:40.701Z,1.03
2022-11-18T07:56:43.990Z,0.70
2022-11-18T07:58:47.533Z,0.87
2022-11-18T08:00:51.972Z,1.20
2022-11-18T08:02:57.828Z,0.90
2022-11-18T08:05:03.782Z,0.70
2022-11-18T08:07:10.862Z,0.90
2022-11-18T08:09:14.203Z,1.00
2022-11-18T08:11:22.402Z,1.30
2022-11-18T08:13:29.485Z,1.23
2022-11-18T08:15:32.801Z,2.00
2022-11-18T08:17:37.597Z,1.07
2022-11-18T08:19:40.746Z,1.30
2022-11-18T08:21:45.297Z,1.23
2022-11-18T08:23:51.731Z,1.20
2022-11-18T08:26:03.127Z,1.30
2022-11-18T08:28:06.549Z,1.17
2022-11-18T08:30:11.135Z,0.97
2022-11-18T08:32:14.715Z,1.60
2022-11-18T08:34:19.192Z,1.10
2022-11-18T08:36:24.143Z,1.33
2022-11-18T08:38:27.398Z,1.43
2022-11-18T08:40:31.662Z,1.70
2022-11-18T08:42:37.788Z,1.73
2022-11-18T08:44:40.827Z,1.37
2022-11-18T08:46:45.566Z,1.50
2022-11-18T08:48:48.913Z,1.40
2022-11-18T08:50:54.936Z,1.43
2022-11-18T08:52:58.068Z,1.20
2022-11-18T08:55:02.946Z,1.17
2022-11-18T08:57:06.126Z,1.13
2022-11-18T08:59:09.336Z,1.30
2022-11-18T09:01:12.675Z,1.10
2022-11-18T09:03:15.878Z,1.20
2022-11-18T09:05:18.981Z,1.30
2022-11-18T09:07:23.510Z,1.07
2022-11-18T09:09:26.737Z,1.60
2022-11-18T09:11:29.797Z,1.30
2022-11-18T09:13:56.307Z,1.40
2022-11-18T09:15:59.147Z,1.50
2022-11-18T09:18:02.304Z,1.33
2022-11-18T09:20:06.150Z,1.47
2022-11-18T09:22:09.577Z,1.20
2022-11-18T09:24:14.013Z,1.67
2022-11-18T09:26:19.175Z,2.03
2022-11-18T09:28:22.194Z,1.70
2022-11-18T09:30:25.254Z,1.50
2022-11-18T09:32:28.329Z,1.60
2022-11-18T09:34:32.475Z,1.80
2022-11-18T09:36:35.451Z,1.70
2022-11-18T09:38:38.509Z,2.67
2022-11-18T09:40:49.761Z,2.20
2022-11-18T09:42:58.798Z,2.60
2022-11-18T09:45:13.842Z,1.80
2022-11-18T09:47:26.363Z,1.97
2022-11-18T09:49:32.160Z,2.20
2022-11-18T09:51:41.068Z,1.90
2022-11-18T09:53:45.767Z,2.00
2022-11-18T09:55:51.292Z,1.90
2022-11-18T09:57:56.951Z,2.57
2022-11-18T10:00:00.498Z,2.00
2022-11-18T10:02:09.350Z,2.10
2022-11-18T10:04:16.968Z,1.80
2022-11-18T10:06:25.242Z,1.50
2022-11-18T10:08:30.127Z,1.17
2022-11-18T10:10:46.650Z,1.43
2022-11-18T10:12:56.128Z,1.40
2022-11-18T10:15:09.207Z,2.20
2022-11-18T10:17:25.802Z,1.90
2022-11-18T10:19:33.750Z,1.80
2022-11-18T10:21:49.456Z,1.53
2022-11-18T10:23:54.870Z,1.50
2022-11-18T10:25:58.589Z,1.80
2022-11-18T10:28:18.072Z,1.70
2022-11-18T10:30:22.624Z,2.10
2022-11-18T10:32:25.733Z,1.87
2022-11-18T10:34:28.926Z,1.90
2022-11-18T10:36:34.187Z,1.80
2022-11-18T10:38:37.238Z,3.43
2022-11-18T10:40:45.374Z,2.50
2022-11-18T10:42:48.354Z,2.60
2022-11-18T10:44:52.856Z,2.93
2022-11-18T10:46:55.941Z,11.20
2022-11-18T10:49:17.370Z,3.70
2022-11-18T10:51:25.526Z,10.60
2022-11-18T10:53:32.248Z,2.90
2022-11-18T10:55:35.507Z,3.20
2022-11-18T10:57:43.396Z,4.63
2022-11-18T10:59:48.723Z,3.50
2022-11-18T11:02:05.375Z,2.47
2022-11-18T11:04:18.474Z,2.00
2022-11-18T11:06:33.918Z,2.00
2022-11-18T11:08:49.486Z,3.43
2022-11-18T11:10:55.772Z,2.60
2022-11-18T11:13:01.688Z,3.07
2022-11-18T11:15:07.681Z,3.13
2022-11-18T11:17:14.695Z,3.57
2022-11-18T11:19:21.226Z,4.27
2022-11-18T11:21:27.895Z,4.17
2022-11-18T11:23:33.770Z,3.10
2022-11-18T11:30:18.921Z,3.27
2022-11-18T11:32:27.944Z,2.63
2022-11-18T11:34:37.415Z,2.50
2022-11-18T11:36:46.499Z,3.27
2022-11-18T11:39:01.335Z,2.87
2022-11-18T11:50:03.230Z,3.27
2022-11-18T11:52:12.015Z,4.13
2022-11-18T11:54:45.657Z,3.60
2022-11-18T11:56:52.072Z,3.53
2022-11-18T11:59:22.137Z,3.50
2022-11-18T12:01:28.995Z,3.50
2022-11-18T12:03:51.437Z,3.50
2022-11-18T12:05:56.495Z,3.20
2022-11-18T12:08:01.700Z,3.70
2022-11-18T12:10:17.648Z,3.10
2022-11-18T12:12:35.988Z,2.87
2022-11-18T12:14:43.456Z,3.10
2022-11-18T12:16:48.507Z,2.90
2022-11-18T12:18:56.382Z,3.10
2022-11-18T12:21:00.819Z,3.97
2022-11-18T12:23:15.117Z,2.90
2022-11-18T12:25:44.734Z,2.70
2022-11-18T12:28:01.101Z,3.20
2022-11-18T12:30:05.365Z,3.50
2022-11-18T12:32:26.704Z,3.60
2022-11-18T12:34:36.218Z,3.10
2022-11-18T12:36:42.443Z,2.53
2022-11-18T12:38:45.659Z,2.80
2022-11-18T12:40:52.655Z,2.57
2022-11-18T12:43:13.800Z,2.60
2022-11-18T12:45:53.552Z,2.00
2022-11-18T12:47:59.583Z,2.80
2022-11-18T12:50:13.690Z,2.53
2022-11-18T12:52:49.674Z,2.73
2022-11-18T12:54:52.926Z,2.77
2022-11-18T12:56:57.171Z,2.27
2022-11-18T12:59:02.474Z,8.57
2022-11-18T13:01:07.828Z,2.13
2022-11-18T13:03:10.936Z,1.97
2022-11-18T13:05:21.115Z,2.10
2022-11-18T13:07:42.321Z,1.90
2022-11-18T13:09:47.139Z,1.60
2022-11-18T13:11:53.165Z,1.73
2022-11-18T13:14:10.493Z,2.00
2022-11-18T13:16:38.437Z,1.40
2022-11-18T13:18:51.626Z,1.30
2022-11-18T13:21:00.249Z,2.20
2022-11-18T13:23:22.210Z,1.60
2022-11-18T13:25:28.242Z,2.10
2022-11-18T13:27:51.125Z,1.37
2022-11-18T13:29:59.682Z,1.50
2022-11-18T13:32:18.155Z,1.83
2022-11-18T13:34:23.081Z,2.10
2022-11-18T13:36:27.139Z,2.30
2022-11-18T13:38:30.203Z,2.10
2022-11-18T13:41:04.253Z,1.80
2022-11-18T13:43:10.458Z,2.00
2022-11-18T13:45:14.484Z,1.90
2022-11-18T13:47:24.388Z,2.00
2022-11-18T13:49:34.310Z,2.07
2022-11-18T13:51:38.848Z,2.53
2022-11-18T13:53:43.450Z,2.03
2022-11-18T13:55:51.437Z,2.30
2022-11-18T13:58:00.797Z,2.20
2022-11-18T14:00:08.170Z,2.20
2022-11-18T14:02:14.420Z,2.30
2022-11-18T14:04:20.726Z,2.43
2022-11-18T14:06:28.290Z,2.43
2022-11-18T14:08:32.838Z,2.40
2022-11-18T14:10:42.589Z,2.10
2022-11-18T14:12:59.067Z,2.70
2022-11-18T14:15:16.172Z,2.40
2022-11-18T14:17:20.908Z,3.27
2022-11-18T14:19:30.381Z,3.60
2022-11-18T14:21:35.323Z,6.50
2022-11-18T14:23:38.698Z,5.50
2022-11-18T14:25:44.963Z,6.00
2022-11-18T14:27:52.310Z,6.40
2022-11-18T14:29:55.758Z,5.40
2022-11-18T14:32:14.952Z,5.23
2022-11-18T14:34:21.117Z,6.97
2022-11-18T14:36:24.183Z,4.50
2022-11-18T14:38:43.631Z,3.60
2022-11-18T14:40:56.942Z,3.17
2022-11-18T14:43:02.129Z,6.50
2022-11-18T14:45:05.805Z,4.93
2022-11-18T14:47:16.859Z,4.83
2022-11-18T14:49:23.540Z,6.47
2022-11-18T14:51:26.872Z,3.33
2022-11-18T14:53:34.775Z,2.87
2022-11-18T14:55:38.388Z,3.20
2022-11-18T14:57:41.623Z,5.30
2022-11-18T14:59:46.125Z,4.80
2022-11-18T15:01:49.808Z,14.27
2022-11-18T15:03:52.993Z,10.83
2022-11-18T15:05:56.185Z,13.33
2022-11-18T15:07:59.217Z,9.60
2022-11-18T15:10:02.280Z,8.63
2022-11-18T15:12:10.179Z,9.77
2022-11-18T15:14:18.804Z,4.37
2022-11-18T15:16:25.863Z,5.80
2022-11-18T15:18:28.951Z,3.90
2022-11-18T15:20:32.155Z,7.00
2022-11-18T15:22:35.544Z,5.27
2022-11-18T15:24:38.811Z,5.17
2022-11-18T15:26:44.197Z,7.07
2022-11-18T15:28:47.614Z,8.93
2022-11-18T15:30:50.841Z,3.63
2022-11-18T15:32:55.465Z,5.90
2022-11-18T15:34:58.572Z,6.63
2022-11-18T15:37:01.727Z,5.37
2022-11-18T15:39:04.940Z,2.77
2022-11-18T15:41:08.077Z,4.13
2022-11-18T15:43:11.137Z,6.57
2022-11-18T15:45:14.273Z,8.90
2022-11-18T15:47:17.390Z,5.37
2022-11-18T15:49:22.115Z,6.47
2022-11-18T15:51:26.035Z,6.10
2022-11-18T15:53:29.370Z,3.80
2022-11-18T15:55:32.384Z,3.20
2022-11-18T15:57:35.479Z,3.80
2022-11-18T15:59:38.584Z,7.30
2022-11-18T16:01:43.598Z,9.43
2022-11-18T16:03:46.659Z,4.30
2022-11-18T16:05:53.396Z,3.07
2022-11-18T16:07:56.544Z,3.00
2022-11-18T16:10:17.138Z,3.50
2022-11-18T16:12:37.742Z,3.17
2022-11-18T16:14:40.722Z,4.30
2022-11-18T16:16:44.662Z,6.87
2022-11-18T16:18:47.748Z,4.20
2022-11-18T16:20:58.618Z,7.13
2022-11-18T16:23:01.601Z,12.20
2022-11-18T16:25:05.180Z,13.83
2022-11-18T16:27:08.213Z,9.30
2022-11-18T16:29:15.607Z,9.63
2022-11-18T16:31:36.143Z,7.30
2022-11-18T16:33:39.434Z,8.20
2022-11-18T16:35:47.815Z,7.00
2022-11-18T16:37:52.230Z,13.73
2022-11-18T16:39:55.480Z,11.60
2022-11-18T16:42:07.480Z,7.17
2022-11-18T16:44:13.794Z,8.50
2022-11-18T16:46:16.765Z,7.50
2022-11-18T16:48:19.920Z,7.33
2022-11-18T16:50:23.017Z,23.67
2022-11-18T16:52:26.236Z,45.17
2022-11-18T16:54:32.084Z,27.80
2022-11-18T16:56:36.549Z,16.10
2022-11-18T16:58:39.542Z,10.53
2022-11-18T17:01:16.591Z,11.53
2022-11-18T17:03:06.106Z,7.47
2022-11-18T17:05:09.730Z,8.33
2022-11-18T17:07:13.113Z,8.47
2022-11-18T17:09:18.077Z,8.87
2022-11-18T17:11:23.034Z,7.83
2022-11-18T17:13:26.031Z,7.53
2022-11-18T17:15:29.104Z,7.80
2022-11-18T17:17:32.156Z,9.10
2022-11-18T17:19:35.255Z,8.77
2022-11-18T17:21:38.274Z,8.50
2022-11-18T17:23:42.169Z,7.30
2022-11-18T17:25:45.195Z,7.77
2022-11-18T17:27:49.633Z,7.60
2022-11-18T17:29:52.682Z,7.37
2022-11-18T17:31:55.763Z,7.10
2022-11-18T17:33:58.953Z,7.00
2022-11-18T17:36:02.349Z,8.40
2022-11-18T17:38:05.344Z,7.73
2022-11-18T17:40:10.056Z,7.27
2022-11-18T17:42:17.612Z,7.60
2022-11-18T17:44:22.152Z,6.83
2022-11-18T17:46:25.573Z,9.47
2022-11-18T17:48:29.970Z,8.60
2022-11-18T17:50:33.048Z,8.30
2022-11-18T17:52:36.161Z,7.87
2022-11-18T17:54:39.288Z,7.40
2022-11-18T17:56:42.487Z,7.83
2022-11-18T17:58:45.785Z,8.50
2022-11-18T18:00:51.068Z,8.60
2022-11-18T18:02:54.485Z,7.13
2022-11-18T18:04:58.182Z,7.00
2022-11-18T18:07:01.803Z,5.87
2022-11-18T18:09:05.174Z,6.80
2022-11-18T18:11:10.995Z,7.00
2022-11-18T18:13:31.982Z,8.90
2022-11-18T18:15:35.665Z,7.57
2022-11-18T18:17:40.351Z,8.73
2022-11-18T18:19:43.409Z,9.03
2022-11-18T18:21:46.780Z,15.60
2022-11-18T18:23:49.897Z,14.17
2022-11-18T18:25:53.052Z,15.20
2022-11-18T18:27:56.112Z,15.17
2022-11-18T18:29:59.183Z,14.63
2022-11-18T18:32:02.557Z,12.90
2022-11-18T18:34:07.551Z,11.43
2022-11-18T18:36:12.907Z,12.07
2022-11-18T18:38:16.111Z,11.20
2022-11-18T18:40:19.328Z,9.30
2022-11-18T18:42:25.927Z,7.70
2022-11-18T18:44:49.414Z,6.50
2022-11-18T18:46:51.526Z,6.10
2022-11-18T18:48:54.664Z,4.77
2022-11-18T18:51:05.331Z,4.50
2022-11-18T18:53:08.442Z,4.93
2022-11-18T18:55:11.549Z,4.90
2022-11-18T18:57:14.535Z,4.17
2022-11-18T18:59:17.578Z,4.17
2022-11-18T19:01:21.472Z,4.50
2022-11-18T19:03:24.625Z,4.50
2022-11-18T19:05:53.590Z,4.03
2022-11-18T19:07:53.445Z,4.03
2022-11-18T19:09:56.617Z,3.93
2022-11-18T19:12:17.240Z,4.30
2022-11-18T19:14:21.353Z,3.73
2022-11-18T19:16:24.534Z,4.23
2022-11-18T19:18:27.793Z,4.70
2022-11-18T19:20:36.861Z,4.47
2022-11-18T19:22:39.945Z,5.20
2022-11-18T19:24:52.157Z,5.40
2022-11-18T19:26:55.513Z,5.90
2022-11-18T19:28:59.272Z,5.50
2022-11-18T19:31:02.425Z,6.77
2022-11-18T19:33:05.887Z,8.63
2022-11-18T19:35:09.918Z,7.60
2022-11-18T19:37:13.418Z,9.50
2022-11-18T19:39:16.683Z,12.20
2022-11-18T19:41:21.256Z,8.93
2022-11-18T19:43:27.143Z,9.43
2022-11-18T19:45:30.173Z,9.90
2022-11-18T19:47:33.542Z,9.10
2022-11-18T19:49:36.703Z,5.90
2022-11-18T19:51:39.945Z,6.07
2022-11-18T19:53:43.785Z,5.80
2022-11-18T19:55:54.374Z,6.40
2022-11-18T19:57:58.873Z,5.47
2022-11-18T20:00:02.491Z,5.30
2022-11-18T20:02:12.671Z,5.30
2022-11-18T20:04:15.775Z,4.80
2022-11-18T20:06:19.800Z,5.60
2022-11-18T20:08:24.289Z,5.87
2022-11-18T20:10:27.435Z,5.53
2022-11-18T20:12:30.526Z,4.87
2022-11-18T20:14:35.209Z,5.20
2022-11-18T20:16:38.732Z,4.17
2022-11-18T20:18:42.386Z,4.33
2022-11-18T20:20:45.546Z,4.37
2022-11-18T20:22:48.648Z,4.80
2022-11-18T20:24:52.102Z,6.90
2022-11-18T20:26:55.290Z,8.73
2022-11-18T20:28:58.404Z,6.67
2022-11-18T20:31:03.130Z,5.60
2022-11-18T20:33:06.358Z,5.17
2022-11-18T20:35:10.505Z,4.60
2022-11-18T20:37:14.914Z,4.83
2022-11-18T20:39:18.650Z,4.65
2022-11-18T20:41:22.521Z,4.85
2022-11-18T20:43:24.662Z,4.50
2022-11-18T20:45:27.714Z,4.40
2022-11-18T20:47:32.127Z,5.03
2022-11-18T20:49:35.193Z,5.20
2022-11-18T20:51:38.212Z,5.90
2022-11-18T20:53:42.762Z,6.13
2022-11-18T20:55:49.442Z,6.53
2022-11-18T20:57:52.514Z,6.37
2022-11-18T20:59:55.704Z,6.17
2022-11-18T21:01:58.846Z,6.83
2022-11-18T21:04:04.504Z,6.43
2022-11-18T21:06:13.630Z,6.93
2022-11-18T21:08:17.565Z,6.53
2022-11-18T21:10:20.769Z,6.30
2022-11-18T21:12:23.882Z,6.80
2022-11-18T21:14:26.078Z,6.43
2022-11-18T21:16:29.335Z,5.90
2022-11-18T21:18:32.313Z,5.43
2022-11-18T21:20:54.404Z,5.67
2022-11-18T21:22:58.183Z,5.23
2022-11-18T21:25:01.274Z,5.90
2022-11-18T21:27:05.097Z,4.90
2022-11-18T21:29:09.762Z,5.63
2022-11-18T21:31:12.855Z,5.77
2022-11-18T21:33:16.035Z,4.83
2022-11-18T21:35:19.237Z,4.50
2022-11-18T21:37:23.710Z,4.57
2022-11-18T21:39:27.564Z,4.60
2022-11-18T21:41:31.143Z,5.10
2022-11-18T21:44:03.912Z,4.90
2022-11-18T21:46:01.570Z,4.60
2022-11-18T21:48:05.182Z,4.53
2022-11-18T21:50:09.230Z,4.80
2022-11-18T21:52:12.334Z,4.40
2022-11-18T21:54:18.237Z,4.90
2022-11-18T21:56:23.171Z,4.70
2022-11-18T21:58:26.330Z,4.90
2022-11-18T22:00:29.705Z,4.57
2022-11-18T22:02:32.870Z,4.60
2022-11-18T22:04:54.426Z,4.90
2022-11-18T22:06:57.626Z,4.37
2022-11-18T22:09:01.120Z,4.70
2022-11-18T22:11:06.244Z,4.80
2022-11-18T22:13:09.388Z,5.20
2022-11-18T22:15:12.521Z,4.80
2022-11-18T22:17:15.752Z,4.80
2022-11-18T22:19:19.135Z,4.40
2022-11-18T22:21:22.821Z,4.33
2022-11-18T22:23:27.459Z,4.40
2022-11-18T22:25:30.588Z,3.90
2022-11-18T22:27:35.108Z,3.77
2022-11-18T22:29:38.187Z,3.60
2022-11-18T22:31:41.178Z,3.37
2022-11-18T22:33:44.267Z,2.90
2022-11-18T22:35:47.533Z,3.40
2022-11-18T22:37:50.647Z,3.40
2022-11-18T22:39:53.767Z,2.90
2022-11-18T22:42:14.508Z,2.87
2022-11-18T22:44:18.880Z,2.90
2022-11-18T22:46:22.000Z,3.90
2022-11-18T22:48:25.319Z,2.77
2022-11-18T22:50:28.704Z,2.63
2022-11-18T22:52:32.339Z,2.50
2022-11-18T22:54:39.805Z,1.70
2022-11-18T22:56:43.433Z,2.50
2022-11-18T22:58:46.483Z,2.37
2022-11-18T23:00:50.899Z,2.40
2022-11-18T23:02:53.996Z,2.17
2022-11-18T23:04:57.205Z,2.40
2022-11-18T23:07:00.277Z,2.60
2022-11-18T23:09:03.500Z,4.57
2022-11-18T23:11:08.113Z,2.75
2022-11-18T23:13:31.493Z,2.63
2022-11-18T23:15:34.594Z,2.97
2022-11-18T23:17:38.938Z,2.60
2022-11-18T23:19:43.857Z,2.63
2022-11-18T23:21:47.421Z,2.85
2022-11-18T23:23:50.451Z,2.40
2022-11-18T23:25:53.472Z,2.00
2022-11-18T23:27:56.681Z,1.60
2022-11-18T23:29:59.789Z,1.33
2022-11-18T23:32:02.798Z,1.50
2022-11-18T23:34:07.252Z,1.77
2022-11-18T23:36:12.341Z,1.90
2022-11-18T23:38:15.370Z,1.67
2022-11-18T23:40:18.789Z,1.47
2022-11-18T23:42:21.876Z,1.30
2022-11-18T23:44:44.919Z,1.55
2022-11-18T23:46:47.975Z,1.00
2022-11-18T23:48:51.057Z,1.40
2022-11-18T23:50:56.194Z,1.50
2022-11-18T23:52:59.211Z,1.35
2022-11-18T23:55:02.206Z,1.15
2022-11-18T23:57:05.563Z,1.25
2022-11-18T23:59:08.942Z,1.30
